Time;durP1;ratioP1;P1;durP2;ratioP2;P2;SDS_P1;SDS_P2;PMS_P1;PMS_P2;Temp;Humidity;BMP_temperature;BMP_pressure;BME280_temperature;BME280_humidity;BME280_pressure;Samples;Min_cycle;Max_cycle;Signal;HPM_P1;HPM_P2
2021/12/03 00:00:58;;;;;;;9.07;5.35;;;-0.40;99.90;;;;;;4974496;28;20034;-85
2021/12/03 00:03:25;;;;;;;7.93;5.03;;;-0.80;99.90;;;;;;5008015;28;20514;-84
2021/12/03 00:05:52;;;;;;;7.78;5.40;;;-0.90;99.90;;;;;;4993496;28;20045;-85
2021/12/03 00:08:19;;;;;;;8.35;5.72;;;-0.90;99.90;;;;;;4997597;28;20045;-85
2021/12/03 00:10:53;;;;;;;12.45;5.80;;;-0.90;99.90;;;;;;4978627;28;20035;-85
2021/12/03 00:13:20;;;;;;;13.32;5.72;;;-0.90;99.90;;;;;;4979070;28;20064;-85
2021/12/03 00:15:46;;;;;;;9.80;6.05;;;-0.90;99.90;;;;;;4976080;28;20049;-84
2021/12/03 00:18:12;;;;;;;10.98;6.47;;;-0.90;99.90;;;;;;4977467;28;20117;-85
2021/12/03 00:20:39;;;;;;;11.90;7.25;;;-0.90;99.90;;;;;;4971548;28;20125;-85
2021/12/03 00:23:05;;;;;;;11.45;6.80;;;-0.90;99.90;;;;;;4977238;28;20129;-85
2021/12/03 00:25:32;;;;;;;19.30;7.53;;;-0.90;99.90;;;;;;4970488;28;20034;-84
2021/12/03 00:27:58;;;;;;;12.18;7.63;;;-0.90;99.90;;;;;;4976098;28;20031;-85
2021/12/03 00:30:24;;;;;;;12.40;7.55;;;-0.90;99.90;;;;;;4993716;28;20092;-84
2021/12/03 00:32:50;;;;;;;11.25;7.50;;;-0.90;99.90;;;;;;5009971;28;20038;-84
2021/12/03 00:35:17;;;;;;;15.27;8.00;;;-0.90;99.90;;;;;;4964063;28;20415;-84
2021/12/03 00:37:45;;;;;;;15.60;7.88;;;-0.90;99.90;;;;;;5005359;28;20046;-84
2021/12/03 00:40:13;;;;;;;11.77;7.90;;;-0.60;99.90;;;;;;4993202;28;20038;-84
2021/12/03 00:42:40;;;;;;;17.65;8.65;;;-0.30;99.90;;;;;;4993819;28;20097;-84
2021/12/03 00:45:07;;;;;;;17.15;9.15;;;-0.90;99.90;;;;;;4992927;28;20036;-85
2021/12/03 00:47:33;;;;;;;14.65;8.75;;;-1.00;99.90;;;;;;4986724;28;20038;-84
2021/12/03 00:49:59;;;;;;;17.00;8.88;;;-1.00;99.90;;;;;;4959697;28;20132;-85
2021/12/03 00:52:25;;;;;;;15.30;9.68;;;-0.90;99.90;;;;;;4986796;28;20492;-84
2021/12/03 00:54:50;;;;;;;17.27;8.43;;;-0.90;99.90;;;;;;5008767;28;20107;-84
2021/12/03 00:57:16;;;;;;;15.77;9.20;;;-0.90;99.90;;;;;;4974358;28;20040;-84
2021/12/03 00:59:42;;;;;;;16.40;9.02;;;-0.90;99.90;;;;;;4992973;28;20038;-84
2021/12/03 01:02:08;;;;;;;12.48;8.68;;;-0.90;99.90;;;;;;4988331;28;20124;-84
2021/12/03 01:04:34;;;;;;;15.38;9.25;;;-0.80;99.90;;;;;;4984984;28;20488;-85
2021/12/03 01:07:00;;;;;;;16.38;8.23;;;-0.80;99.90;;;;;;4989978;28;20573;-84
2021/12/03 01:09:26;;;;;;;13.88;9.18;;;-0.80;99.90;;;;;;5006606;28;20038;-85
2021/12/03 01:11:52;;;;;;;15.75;9.63;;;-0.80;99.90;;;;;;5006638;28;20050;-84
2021/12/03 01:14:19;;;;;;;12.63;8.82;;;-0.80;99.90;;;;;;5006862;28;20081;-85
2021/12/03 01:16:45;;;;;;;14.82;9.27;;;-0.70;99.90;;;;;;4976023;28;20045;-85
2021/12/03 01:19:11;;;;;;;17.90;8.73;;;-0.70;99.90;;;;;;4992642;28;20049;-84
2021/12/03 01:21:37;;;;;;;15.90;8.77;;;0.20;99.90;;;;;;4985640;28;20044;-84
2021/12/03 01:24:03;;;;;;;16.05;9.25;;;-0.70;99.90;;;;;;4975733;28;20070;-84
2021/12/03 01:26:30;;;;;;;16.55;9.85;;;-0.60;99.90;;;;;;5007760;28;20096;-84
2021/12/03 01:28:55;;;;;;;20.65;9.98;;;-0.60;99.90;;;;;;4971580;28;20491;-85
2021/12/03 01:31:21;;;;;;;18.88;10.55;;;-0.60;99.90;;;;;;4992103;28;20044;-84
2021/12/03 01:33:47;;;;;;;18.10;11.00;;;-0.60;99.90;;;;;;4973406;28;20041;-84
2021/12/03 01:36:14;;;;;;;22.30;11.13;;;-0.60;99.90;;;;;;4990698;28;20403;-84
2021/12/03 01:38:40;;;;;;;21.75;11.18;;;-0.60;99.90;;;;;;4976451;28;20033;-85
2021/12/03 01:41:05;;;;;;;20.35;11.40;;;-0.60;99.90;;;;;;4992216;28;20509;-85
2021/12/03 01:43:32;;;;;;;18.23;11.48;;;-0.60;99.90;;;;;;4976521;28;20130;-85
2021/12/03 01:46:05;;;;;;;18.20;11.05;;;-0.60;99.90;;;;;;5005196;28;20042;-85
2021/12/03 01:48:31;;;;;;;24.75;12.65;;;-0.60;99.90;;;;;;4991124;28;20033;-84
2021/12/03 01:50:57;;;;;;;22.27;12.20;;;-0.50;99.90;;;;;;4991957;28;20121;-84
2021/12/03 01:53:27;;;;;;;19.95;11.38;;;-0.50;99.90;;;;;;4988846;28;20091;-84
2021/12/03 01:55:59;;;;;;;17.75;11.45;;;-0.50;99.90;;;;;;5008106;28;20038;-84
2021/12/03 01:58:25;;;;;;;24.98;13.40;;;-0.50;99.90;;;;;;4991271;28;20451;-85
2021/12/03 02:00:58;;;;;;;22.65;12.88;;;-0.50;99.90;;;;;;4991352;28;20120;-84
2021/12/03 02:03:28;;;;;;;24.00;13.52;;;-0.50;99.90;;;;;;5007878;28;20124;-85
2021/12/03 02:05:54;;;;;;;21.58;13.43;;;-0.50;99.90;;;;;;4991247;28;20041;-85
2021/12/03 02:08:20;;;;;;;23.00;14.10;;;-0.50;99.90;;;;;;4992350;28;20384;-84
2021/12/03 02:10:46;;;;;;;25.15;15.35;;;-0.50;99.90;;;;;;4991768;28;20072;-85
2021/12/03 02:13:13;;;;;;;23.00;14.40;;;-0.50;99.90;;;;;;5007941;28;20050;-84
2021/12/03 02:15:41;;;;;;;22.55;13.15;;;-0.50;99.90;;;;;;5005764;28;20045;-84
2021/12/03 02:18:08;;;;;;;24.67;15.43;;;-0.50;99.90;;;;;;5007071;28;20034;-84
2021/12/03 02:20:34;;;;;;;25.33;15.25;;;-0.50;99.90;;;;;;5006056;28;20100;-85
2021/12/03 02:23:00;;;;;;;30.77;16.55;;;-0.50;99.90;;;;;;4984001;28;20042;-85
2021/12/03 02:25:27;;;;;;;27.17;16.27;;;-0.50;99.90;;;;;;4990881;28;20562;-85
2021/12/03 02:27:56;;;;;;;24.27;16.00;;;-0.50;99.90;;;;;;4975422;28;20034;-85
2021/12/03 02:30:22;;;;;;;27.90;16.85;;;-0.50;99.90;;;;;;4991494;28;20030;-84
2021/12/03 02:32:50;;;;;;;27.52;16.88;;;-0.50;99.90;;;;;;5007115;28;20065;-85
2021/12/03 02:35:18;;;;;;;29.55;17.45;;;-0.50;99.90;;;;;;4988984;28;20442;-85
2021/12/03 02:37:44;;;;;;;37.83;19.25;;;-0.50;99.90;;;;;;4989971;28;20574;-84
2021/12/03 02:40:11;;;;;;;30.90;18.60;;;-0.50;99.90;;;;;;4976423;28;20125;-85
2021/12/03 02:42:37;;;;;;;30.25;17.77;;;0.00;99.90;;;;;;4990923;28;20053;-85
2021/12/03 02:45:04;;;;;;;28.58;18.10;;;-0.40;99.90;;;;;;5007563;28;20038;-84
2021/12/03 02:47:30;;;;;;;24.98;18.05;;;-0.40;99.90;;;;;;4991580;28;20368;-85
2021/12/03 02:49:56;;;;;;;34.28;19.17;;;-0.40;99.90;;;;;;4990663;28;20041;-85
2021/12/03 02:52:22;;;;;;;29.20;18.08;;;-0.40;99.90;;;;;;4988286;28;20033;-84
2021/12/03 02:54:48;;;;;;;29.55;18.20;;;-0.40;99.90;;;;;;4976697;28;20113;-84
2021/12/03 02:57:14;;;;;;;25.88;17.75;;;-0.40;99.90;;;;;;5005558;28;20069;-85
2021/12/03 02:59:40;;;;;;;28.08;18.58;;;0.30;99.90;;;;;;4988940;28;20398;-84
2021/12/03 03:02:06;;;;;;;29.65;18.92;;;-0.30;99.90;;;;;;4974828;28;20117;-85
2021/12/03 03:04:32;;;;;;;31.40;19.25;;;-0.40;99.90;;;;;;4990904;28;20048;-84
2021/12/03 03:06:57;;;;;;;32.70;19.67;;;-0.40;99.90;;;;;;4964936;28;20034;-84
2021/12/03 03:09:24;;;;;;;30.33;19.42;;;-0.40;99.90;;;;;;4990452;28;20119;-85
2021/12/03 03:11:50;;;;;;;31.25;19.52;;;-0.40;99.90;;;;;;4990382;28;20058;-85
2021/12/03 03:14:16;;;;;;;32.60;19.08;;;-0.40;99.90;;;;;;4985826;28;20119;-85
2021/12/03 03:16:41;;;;;;;33.92;19.35;;;0.70;99.90;;;;;;5005247;28;20071;-84
2021/12/03 03:19:16;;;;;;;31.30;20.27;;;-0.40;99.90;;;;;;5007025;28;20111;-85
2021/12/03 03:21:43;;;;;;;31.90;20.10;;;-0.40;99.90;;;;;;4991051;28;20042;-85
2021/12/03 03:24:09;;;;;;;33.47;18.67;;;-0.30;99.90;;;;;;5004002;28;20041;-85
2021/12/03 03:26:40;;;;;;;32.53;19.00;;;-0.30;99.90;;;;;;4991098;28;20510;-85
2021/12/03 03:29:08;;;;;;;32.70;19.13;;;-0.30;99.90;;;;;;4991122;28;20611;-85
2021/12/03 03:31:36;;;;;;;31.85;18.85;;;-0.30;99.90;;;;;;5004726;28;20037;-84
2021/12/03 03:34:03;;;;;;;30.75;19.92;;;-0.30;99.90;;;;;;4968562;28;20053;-84
2021/12/03 03:36:36;;;;;;;29.52;19.02;;;-0.40;99.90;;;;;;4990386;28;20045;-85
2021/12/03 03:39:04;;;;;;;32.67;19.85;;;-0.30;99.90;;;;;;5009057;28;20388;-85
2021/12/03 03:41:30;;;;;;;27.30;20.00;;;-0.30;99.90;;;;;;4980397;28;20426;-84
2021/12/03 03:43:56;;;;;;;27.52;19.10;;;-0.30;99.90;;;;;;4993889;28;20041;-85
2021/12/03 03:46:21;;;;;;;27.67;18.67;;;-0.30;99.90;;;;;;4977774;28;20038;-84
2021/12/03 03:48:47;;;;;;;25.95;18.63;;;-0.30;99.90;;;;;;4994567;28;20030;-84
2021/12/03 03:51:13;;;;;;;29.80;18.95;;;0.30;99.90;;;;;;4994310;28;20113;-84
2021/12/03 03:53:40;;;;;;;23.60;17.58;;;-0.30;99.90;;;;;;4977536;28;20196;-85
2021/12/03 03:56:07;;;;;;;24.83;17.85;;;-0.30;99.90;;;;;;5010736;28;20037;-85
2021/12/03 03:58:33;;;;;;;24.63;18.77;;;-0.30;99.90;;;;;;4993946;28;20042;-85
2021/12/03 04:00:59;;;;;;;30.05;19.25;;;-0.20;99.90;;;;;;4993234;28;20038;-85
2021/12/03 04:03:25;;;;;;;26.67;19.67;;;-0.40;99.90;;;;;;4994512;28;20045;-84
2021/12/03 04:05:52;;;;;;;26.60;18.15;;;-0.30;99.90;;;;;;4977370;28;20034;-85
2021/12/03 04:08:18;;;;;;;26.20;18.80;;;-0.30;99.90;;;;;;4993683;28;20418;-85
2021/12/03 04:10:46;;;;;;;23.45;17.38;;;-0.30;99.90;;;;;;4992269;28;20036;-85
2021/12/03 04:13:11;;;;;;;23.90;18.40;;;-0.20;99.90;;;;;;4994233;28;20042;-85
2021/12/03 04:15:37;;;;;;;26.58;20.15;;;-0.30;99.90;;;;;;4992321;28;20038;-84
2021/12/03 04:18:04;;;;;;;28.77;17.65;;;-0.30;99.90;;;;;;4977987;28;20046;-85
2021/12/03 04:20:30;;;;;;;28.05;20.35;;;-0.30;99.90;;;;;;4993846;28;20403;-85
2021/12/03 04:22:55;;;;;;;25.13;19.02;;;-0.40;99.90;;;;;;5009296;28;20044;-85
2021/12/03 04:25:22;;;;;;;29.08;21.65;;;0.80;99.90;;;;;;4993684;28;20091;-85
2021/12/03 04:27:49;;;;;;;23.63;18.08;;;-0.40;99.90;;;;;;4993342;28;20030;-85
2021/12/03 04:30:20;;;;;;;27.17;20.23;;;-0.40;99.90;;;;;;4992217;28;20041;-85
2021/12/03 04:32:46;;;;;;;27.73;16.90;;;-0.30;99.90;;;;;;5002555;28;20117;-84
2021/12/03 04:35:12;;;;;;;26.00;18.67;;;-0.30;99.90;;;;;;4985468;28;20145;-85
2021/12/03 04:37:38;;;;;;;27.40;20.25;;;-0.30;99.90;;;;;;4993406;28;20038;-85
2021/12/03 04:40:07;;;;;;;29.50;20.40;;;-0.30;99.90;;;;;;4992194;28;20041;-85
2021/12/03 04:42:32;;;;;;;27.98;20.65;;;-0.30;99.90;;;;;;4977092;28;20102;-84
2021/12/03 04:44:58;;;;;;;28.52;19.63;;;-0.30;99.90;;;;;;4993414;28;20065;-85
2021/12/03 04:47:24;;;;;;;30.15;20.45;;;-0.30;99.90;;;;;;5009602;28;20045;-84
2021/12/03 04:49:50;;;;;;;29.13;19.98;;;-0.40;99.90;;;;;;5009738;28;20117;-85
2021/12/03 04:52:15;;;;;;;28.88;20.63;;;-0.30;99.90;;;;;;4971436;28;20435;-84
2021/12/03 04:54:42;;;;;;;32.17;21.00;;;-0.30;99.90;;;;;;4980269;28;20078;-84
2021/12/03 04:57:08;;;;;;;30.05;19.38;;;-0.30;99.90;;;;;;5005608;28;20501;-85
2021/12/03 04:59:34;;;;;;;28.77;21.13;;;-0.30;99.90;;;;;;5010159;28;20030;-85
2021/12/03 05:02:00;;;;;;;25.75;20.13;;;-0.40;99.90;;;;;;4992336;28;20605;-85
2021/12/03 05:04:26;;;;;;;29.63;21.38;;;-0.10;99.90;;;;;;5008132;28;20050;-85
2021/12/03 05:07:16;;;;;;;29.83;19.27;;;0.40;99.90;;;;;;4986022;28;20169;-85
2021/12/03 05:09:42;;;;;;;30.30;20.23;;;-0.30;99.90;;;;;;5009316;28;20046;-85
2021/12/03 05:12:08;;;;;;;20.50;14.23;;;-0.30;99.90;;;;;;4992776;28;20058;-85
2021/12/03 05:14:34;;;;;;;27.08;18.52;;;-0.20;99.90;;;;;;4992717;28;20052;-85
2021/12/03 05:17:00;;;;;;;28.35;20.50;;;-0.30;99.90;;;;;;4992627;28;20050;-85
2021/12/03 05:19:25;;;;;;;33.38;21.83;;;-0.30;99.90;;;;;;4991492;28;20042;-85
2021/12/03 05:21:51;;;;;;;35.72;21.63;;;-0.30;99.90;;;;;;4991912;28;20470;-85
2021/12/03 05:24:17;;;;;;;33.63;22.08;;;-0.30;99.90;;;;;;5006481;28;20038;-85
2021/12/03 05:26:44;;;;;;;37.20;21.92;;;-0.30;99.90;;;;;;5009036;28;20088;-85
2021/12/03 05:29:10;;;;;;;41.58;22.48;;;0.40;99.90;;;;;;4991197;28;20038;-85
2021/12/03 05:31:37;;;;;;;30.38;20.48;;;-0.30;99.90;;;;;;4992352;28;20044;-84
2021/12/03 05:34:09;;;;;;;35.42;20.42;;;-0.30;99.90;;;;;;4988436;28;20034;-85
2021/12/03 05:36:35;;;;;;;35.40;21.80;;;-0.20;99.90;;;;;;4981059;28;20057;-85
2021/12/03 05:39:01;;;;;;;29.23;19.30;;;-0.10;99.90;;;;;;4991369;28;20483;-84
2021/12/03 05:41:27;;;;;;;31.35;21.00;;;-0.20;99.90;;;;;;5008948;28;20034;-83
2021/12/03 05:43:53;;;;;;;31.55;20.73;;;0.20;99.90;;;;;;4962169;28;20462;-84
2021/12/03 05:46:18;;;;;;;34.65;20.63;;;-0.10;99.90;;;;;;5009091;28;20038;-84
2021/12/03 05:48:44;;;;;;;32.20;21.30;;;-0.10;99.90;;;;;;4992260;28;20045;-84
2021/12/03 05:51:10;;;;;;;35.80;21.40;;;-0.10;99.90;;;;;;4975244;28;20042;-84
2021/12/03 05:53:36;;;;;;;29.08;19.27;;;-0.10;99.90;;;;;;4974693;28;20756;-84
2021/12/03 05:56:02;;;;;;;37.28;20.98;;;0.00;99.90;;;;;;5003037;28;20045;-85
2021/12/03 05:58:28;;;;;;;35.00;21.25;;;-0.10;99.90;;;;;;4992255;28;20057;-84
2021/12/03 06:00:54;;;;;;;29.75;20.00;;;0.00;99.90;;;;;;4962021;28;20207;-84
2021/12/03 06:03:20;;;;;;;36.47;21.30;;;0.00;99.90;;;;;;4994307;28;20042;-84
2021/12/03 06:05:45;;;;;;;35.17;22.13;;;0.00;99.90;;;;;;5008173;28;20041;-85
2021/12/03 06:08:11;;;;;;;35.95;23.40;;;0.00;99.90;;;;;;4989536;28;20041;-84
2021/12/03 06:10:38;;;;;;;35.47;23.02;;;-0.10;99.90;;;;;;5005200;28;20093;-85
2021/12/03 06:13:05;;;;;;;38.80;23.50;;;0.00;99.90;;;;;;5021045;28;20057;-84
2021/12/03 06:15:31;;;;;;;36.75;23.15;;;0.60;99.90;;;;;;4991834;28;20084;-85
2021/12/03 06:17:57;;;;;;;36.72;22.00;;;0.40;99.90;;;;;;5009645;28;20034;-84
2021/12/03 06:20:23;;;;;;;36.05;22.15;;;0.30;99.90;;;;;;5033822;28;20030;-84
2021/12/03 06:22:50;;;;;;;37.75;22.60;;;0.00;99.90;;;;;;5019803;28;20084;-84
2021/12/03 06:25:17;;;;;;;34.40;21.67;;;0.00;99.90;;;;;;5037912;28;20029;-83
2021/12/03 06:27:43;;;;;;;36.80;23.17;;;0.00;99.90;;;;;;4998977;28;20045;-85
2021/12/03 06:30:14;;;;;;;39.03;24.02;;;0.00;99.90;;;;;;4978800;28;20038;-84
2021/12/03 06:32:40;;;;;;;39.67;23.70;;;0.00;99.90;;;;;;4992596;28;20406;-84
2021/12/03 06:35:09;;;;;;;38.22;22.38;;;0.00;99.90;;;;;;4993242;28;20030;-84
2021/12/03 06:37:35;;;;;;;44.50;23.77;;;0.00;99.90;;;;;;4992306;28;20455;-85
2021/12/03 06:40:01;;;;;;;45.55;24.45;;;0.00;99.90;;;;;;4975592;28;20038;-84
2021/12/03 06:42:27;;;;;;;38.50;22.65;;;0.00;99.90;;;;;;4991342;28;20044;-85
2021/12/03 06:44:53;;;;;;;39.63;22.67;;;0.00;99.90;;;;;;4968082;28;20046;-84
2021/12/03 06:47:19;;;;;;;40.70;21.25;;;0.00;99.90;;;;;;4959187;28;20034;-84
2021/12/03 06:49:44;;;;;;;37.95;19.85;;;0.00;99.90;;;;;;5007877;28;20038;-85
2021/12/03 06:52:14;;;;;;;36.95;22.17;;;0.00;99.90;;;;;;5007257;28;20073;-84
2021/12/03 06:54:41;;;;;;;44.13;24.38;;;0.00;99.90;;;;;;5007269;28;20758;-84
2021/12/03 06:57:08;;;;;;;47.33;22.90;;;0.00;99.90;;;;;;4988979;28;20076;-84
2021/12/03 06:59:36;;;;;;;39.83;23.10;;;0.10;99.90;;;;;;4990921;28;20074;-85
2021/12/03 07:02:02;;;;;;;42.35;24.23;;;0.10;99.90;;;;;;4974919;28;20050;-85
2021/12/03 07:04:28;;;;;;;44.00;24.42;;;0.00;99.90;;;;;;4990150;28;20650;-85
2021/12/03 07:06:54;;;;;;;43.05;24.02;;;0.00;99.90;;;;;;4990457;28;20046;-85
2021/12/03 07:09:20;;;;;;;38.05;22.50;;;0.10;99.90;;;;;;4990398;28;20041;-85
2021/12/03 07:11:46;;;;;;;43.90;24.55;;;0.10;99.90;;;;;;4988099;28;20049;-85
2021/12/03 07:14:12;;;;;;;40.53;23.13;;;0.20;99.90;;;;;;4993899;28;20057;-84
2021/12/03 07:16:38;;;;;;;46.05;22.33;;;0.20;99.90;;;;;;5009651;28;20073;-83
2021/12/03 07:19:05;;;;;;;43.05;23.08;;;0.30;99.90;;;;;;4979983;28;20079;-82
2021/12/03 07:21:31;;;;;;;40.40;23.33;;;0.30;99.90;;;;;;5004374;28;20038;-85
2021/12/03 07:23:57;;;;;;;44.90;22.58;;;0.30;99.90;;;;;;4992541;28;20061;-85
2021/12/03 07:26:24;;;;;;;44.95;23.77;;;0.40;99.90;;;;;;4978693;28;20502;-84
2021/12/03 07:28:51;;;;;;;42.13;23.85;;;0.40;99.90;;;;;;5010892;28;20109;-85
2021/12/03 07:31:17;;;;;;;36.28;21.83;;;0.40;99.90;;;;;;4978188;28;20076;-86
2021/12/03 07:33:43;;;;;;;43.38;23.92;;;1.20;99.90;;;;;;4993295;28;20495;-85
2021/12/03 07:36:09;;;;;;;41.90;23.63;;;0.50;99.90;;;;;;5010497;28;20037;-86
2021/12/03 07:38:36;;;;;;;43.05;22.90;;;0.70;99.90;;;;;;5008328;28;20037;-86
2021/12/03 07:41:03;;;;;;;41.35;23.10;;;0.50;99.90;;;;;;5010754;28;20054;-85
2021/12/03 07:43:29;;;;;;;44.85;24.08;;;1.40;99.90;;;;;;4993549;28;20034;-85
2021/12/03 07:45:55;;;;;;;46.05;25.08;;;0.50;99.90;;;;;;4977409;28;20049;-86
2021/12/03 07:48:23;;;;;;;45.55;24.30;;;0.80;99.90;;;;;;4994311;28;20468;-86
2021/12/03 07:50:50;;;;;;;51.55;26.80;;;0.70;99.90;;;;;;4993404;28;20112;-85
2021/12/03 07:53:19;;;;;;;44.15;25.27;;;0.50;99.90;;;;;;4994198;28;20510;-85
2021/12/03 07:55:46;;;;;;;50.17;27.25;;;0.60;99.90;;;;;;4978004;28;20104;-85
2021/12/03 07:58:13;;;;;;;49.72;26.48;;;0.60;99.90;;;;;;4989094;28;20049;-85
2021/12/03 08:00:38;;;;;;;50.75;25.95;;;0.60;99.90;;;;;;5003368;28;20038;-84
2021/12/03 08:03:04;;;;;;;65.00;27.50;;;0.60;99.90;;;;;;4978561;28;20049;-85
2021/12/03 08:05:30;;;;;;;48.40;25.63;;;0.60;99.90;;;;;;4994317;28;20081;-84
2021/12/03 08:07:58;;;;;;;55.03;26.42;;;0.60;99.90;;;;;;4993732;28;20435;-85
2021/12/03 08:10:23;;;;;;;57.38;25.75;;;1.10;99.90;;;;;;5009081;28;20395;-85
2021/12/03 08:12:49;;;;;;;46.95;25.10;;;0.70;99.90;;;;;;5009959;28;20053;-84
2021/12/03 08:15:16;;;;;;;51.92;25.02;;;0.70;99.90;;;;;;4994527;28;20050;-84
2021/12/03 08:17:42;;;;;;;60.60;27.85;;;0.80;99.90;;;;;;5009514;28;20041;-84
2021/12/03 08:20:09;;;;;;;55.08;27.20;;;0.80;99.90;;;;;;4984144;28;20060;-85
2021/12/03 08:22:35;;;;;;;57.00;28.75;;;0.80;99.90;;;;;;5006528;28;20045;-85
2021/12/03 08:25:02;;;;;;;63.60;28.30;;;0.80;99.90;;;;;;4991937;28;20038;-83
2021/12/03 08:27:28;;;;;;;59.53;30.38;;;0.80;99.90;;;;;;5009872;28;20037;-83
2021/12/03 08:29:54;;;;;;;61.13;28.38;;;0.80;99.90;;;;;;5010061;28;20034;-83
2021/12/03 08:32:20;;;;;;;64.38;32.10;;;0.90;99.90;;;;;;4975737;28;20057;-85
2021/12/03 08:34:46;;;;;;;72.38;30.35;;;0.90;99.90;;;;;;4978364;28;20044;-85
2021/12/03 08:37:12;;;;;;;65.32;30.02;;;1.00;99.90;;;;;;4994579;28;20053;-85
2021/12/03 08:39:38;;;;;;;66.75;29.13;;;1.00;99.90;;;;;;5007938;28;20120;-85
2021/12/03 08:42:06;;;;;;;71.55;31.40;;;1.00;99.90;;;;;;4991218;28;20045;-84
2021/12/03 08:44:32;;;;;;;65.50;28.75;;;1.00;99.90;;;;;;4975077;28;20069;-85
2021/12/03 08:47:03;;;;;;;75.90;30.63;;;1.10;99.90;;;;;;4991015;28;20119;-86
2021/12/03 08:49:32;;;;;;;75.30;32.10;;;1.10;99.90;;;;;;4993103;28;20483;-85
2021/12/03 08:57:12;;;;;;;72.85;30.10;;;1.20;99.90;;;;;;5007256;28;20049;-85
2021/12/03 08:59:38;;;;;;;74.20;29.90;;;1.70;99.90;;;;;;4959204;28;20077;-85
2021/12/03 09:02:05;;;;;;;81.68;34.55;;;1.30;99.90;;;;;;4993580;28;20116;-85
2021/12/03 09:04:30;;;;;;;86.05;32.90;;;1.30;99.90;;;;;;4984355;28;20483;-85
2021/12/03 09:06:58;;;;;;;86.28;32.55;;;1.30;99.90;;;;;;5000803;28;20034;-85
2021/12/03 09:09:26;;;;;;;71.13;30.52;;;1.40;99.90;;;;;;4988306;28;20064;-85
2021/12/03 09:11:54;;;;;;;80.32;31.67;;;1.30;99.90;;;;;;4992966;28;20058;-85
2021/12/03 09:19:37;;;;;;;80.18;31.10;;;2.00;99.90;;;;;;5008831;28;20396;-86
2021/12/03 09:22:03;;;;;;;74.55;31.60;;;1.50;99.90;;;;;;4992049;28;20120;-84
2021/12/03 09:24:32;;;;;;;56.38;27.58;;;1.60;99.90;;;;;;4977693;28;20073;-84
2021/12/03 09:26:58;;;;;;;79.28;31.40;;;2.50;99.90;;;;;;4978544;28;20046;-85
2021/12/03 09:29:31;;;;;;;79.40;29.05;;;1.70;99.90;;;;;;4993990;28;20496;-85
2021/12/03 09:31:58;;;;;;;77.07;29.58;;;3.00;99.90;;;;;;5010445;28;20048;-85
2021/12/03 09:34:25;;;;;;;73.95;29.10;;;2.50;99.90;;;;;;4992357;28;20120;-85
2021/12/03 09:36:51;;;;;;;67.97;27.20;;;1.70;99.90;;;;;;4988384;28;20129;-85
2021/12/03 09:39:23;;;;;;;64.07;27.58;;;1.80;99.90;;;;;;4967891;28;20491;-85
2021/12/03 09:41:50;;;;;;;69.80;29.15;;;1.80;99.90;;;;;;4997689;28;20049;-85
2021/12/03 09:44:16;;;;;;;68.30;28.42;;;1.80;99.90;;;;;;4994116;28;20056;-85
2021/12/03 09:46:42;;;;;;;62.85;26.08;;;1.80;99.90;;;;;;4993608;28;20038;-85
2021/12/03 09:49:42;;;;;;;57.38;23.70;;;1.90;99.90;;;;;;4988067;28;20042;-85
2021/12/03 09:57:12;;;;;;;61.95;23.60;;;2.10;99.90;;;;;;4990340;28;20057;-85
2021/12/03 10:02:23;;;;;;;57.72;24.48;;;1.90;99.90;;;;;;4988963;28;20044;-85
2021/12/03 10:13:09;;;;;;;44.08;18.67;;;2.00;99.90;;;;;;4988646;28;20419;-85
2021/12/03 10:15:43;;;;;;;47.33;20.92;;;2.00;99.90;;;;;;4990844;28;20124;-86
2021/12/03 10:18:16;;;;;;;49.17;19.77;;;2.10;99.90;;;;;;4974499;28;20042;-86
2021/12/03 10:20:54;;;;;;;46.83;21.08;;;2.10;99.90;;;;;;4987726;28;20469;-86
2021/12/03 10:26:50;;;;;;;40.05;18.55;;;2.20;99.90;;;;;;5008548;28;20046;-85
2021/12/03 10:46:01;;;;;;;26.60;14.15;;;2.30;99.90;;;;;;4989651;28;20085;-85
2021/12/03 10:49:01;;;;;;;31.02;12.63;;;2.30;99.90;;;;;;4986934;28;20033;-86
2021/12/03 11:35:01;;;;;;;14.68;7.72;;;2.40;99.90;;;;;;5006634;28;20054;-85
2021/12/03 11:40:01;;;;;;;17.20;6.40;;;2.50;99.90;;;;;;5007371;28;20034;-85
2021/12/03 14:20:12;;;;;;;23.00;8.57;;;3.30;99.90;;;;;;4982292;28;20053;-84
2021/12/03 14:49:47;;;;;;;17.70;7.50;;;2.70;99.90;;;;;;5001043;28;20054;-84
2021/12/03 14:52:18;;;;;;;14.57;7.40;;;2.80;99.90;;;;;;4976395;28;20092;-84
2021/12/03 14:57:33;;;;;;;14.00;7.75;;;2.80;99.90;;;;;;4977192;28;20058;-84
2021/12/03 15:00:46;;;;;;;15.05;7.32;;;2.80;99.90;;;;;;4992176;28;20128;-84
2021/12/03 15:05:59;;;;;;;13.95;7.03;;;2.90;99.90;;;;;;5008637;28;20587;-84
2021/12/03 15:22:42;;;;;;;14.15;7.50;;;3.00;99.90;;;;;;4998365;28;20046;-84
2021/12/03 15:25:18;;;;;;;14.60;7.03;;;3.00;99.90;;;;;;4981070;28;20502;-85
2021/12/03 15:28:03;;;;;;;11.80;6.13;;;3.50;99.90;;;;;;5008195;28;20033;-84
2021/12/03 15:33:08;;;;;;;12.50;6.60;;;3.20;99.90;;;;;;5008366;28;20506;-84
2021/12/03 15:38:44;;;;;;;9.52;5.45;;;3.90;99.90;;;;;;5001962;28;20133;-84
2021/12/03 16:05:34;;;;;;;11.25;6.85;;;3.30;99.90;;;;;;5011907;28;20074;-84
2021/12/03 16:08:00;;;;;;;10.07;6.25;;;3.40;99.90;;;;;;4987170;28;20123;-84
2021/12/03 16:24:06;;;;;;;9.32;7.35;;;3.30;99.90;;;;;;5009077;28;20052;-84
2021/12/03 16:54:01;;;;;;;13.82;10.10;;;3.50;99.90;;;;;;4952237;28;20046;-86
2021/12/03 16:56:28;;;;;;;10.73;7.97;;;3.90;99.90;;;;;;4955806;28;20530;-86
2021/12/03 16:58:56;;;;;;;12.35;8.95;;;3.30;99.90;;;;;;4975011;28;20139;-86
2021/12/03 17:56:00;;;;;;;14.93;10.60;;;3.40;99.90;;;;;;4994957;28;20038;-84
2021/12/03 18:03:08;;;;;;;17.52;12.55;;;3.60;99.90;;;;;;4998572;28;20459;-84
2021/12/03 18:08:26;;;;;;;22.13;14.68;;;3.30;99.90;;;;;;5000171;28;20042;-84
2021/12/03 18:54:00;;;;;;;23.50;15.18;;;3.40;99.90;;;;;;4993539;28;20156;-83
2021/12/03 18:56:34;;;;;;;26.48;16.67;;;3.40;99.90;;;;;;4959766;28;20460;-83
2021/12/03 18:59:07;;;;;;;23.48;15.75;;;3.40;99.90;;;;;;4977477;28;20042;-84
2021/12/03 19:01:34;;;;;;;27.25;16.52;;;3.40;99.90;;;;;;4992428;28;20038;-84
2021/12/03 19:09:10;;;;;;;31.08;16.88;;;3.50;99.90;;;;;;5008721;28;20074;-83
2021/12/03 19:11:51;;;;;;;27.48;16.75;;;3.50;99.90;;;;;;4957121;28;20535;-84
2021/12/03 19:14:18;;;;;;;30.58;16.48;;;3.50;99.90;;;;;;4986816;28;20052;-80
2021/12/03 19:16:44;;;;;;;25.95;16.67;;;3.50;99.90;;;;;;4996480;28;20034;-84
2021/12/03 19:19:14;;;;;;;29.48;17.52;;;3.50;99.90;;;;;;4982776;28;20116;-85
2021/12/03 19:21:40;;;;;;;26.23;17.10;;;3.50;99.90;;;;;;4975631;28;20821;-84
2021/12/03 19:24:08;;;;;;;28.17;18.23;;;4.20;99.90;;;;;;4985195;28;20656;-84
2021/12/03 19:26:36;;;;;;;25.08;16.40;;;3.50;99.90;;;;;;4986289;28;20049;-83
2021/12/03 19:29:04;;;;;;;28.65;16.55;;;3.60;99.90;;;;;;4976113;28;20039;-84
2021/12/03 19:31:30;;;;;;;25.05;15.70;;;3.50;99.90;;;;;;5002676;28;20034;-84
2021/12/03 19:33:57;;;;;;;30.90;17.52;;;3.60;99.90;;;;;;4974823;28;20492;-84
2021/12/03 19:36:27;;;;;;;26.30;16.42;;;4.10;99.90;;;;;;4992563;28;20122;-84
2021/12/03 19:38:57;;;;;;;24.52;15.43;;;3.60;99.90;;;;;;4988860;28;20543;-84
2021/12/03 19:44:00;;;;;;;26.98;17.33;;;3.60;99.90;;;;;;5001003;28;20081;-84
2021/12/03 19:46:38;;;;;;;25.50;16.95;;;3.60;99.90;;;;;;4986596;28;20072;-84
2021/12/03 19:49:14;;;;;;;26.70;17.00;;;3.60;99.90;;;;;;4973735;28;20092;-84
2021/12/03 19:51:45;;;;;;;28.55;17.13;;;3.60;99.90;;;;;;4992942;28;20116;-84
2021/12/03 19:54:12;;;;;;;29.50;17.50;;;3.60;99.90;;;;;;4987979;28;20099;-84
2021/12/03 19:56:40;;;;;;;30.45;17.95;;;3.60;99.90;;;;;;4989421;28;20111;-84
2021/12/03 19:59:09;;;;;;;30.50;18.23;;;3.70;99.90;;;;;;4987314;28;20053;-84
2021/12/03 20:01:35;;;;;;;29.73;17.15;;;4.30;99.90;;;;;;4988434;28;20053;-83
2021/12/03 20:04:03;;;;;;;26.55;16.48;;;3.60;99.90;;;;;;4987444;28;20125;-83
2021/12/03 20:06:29;;;;;;;26.50;15.95;;;3.60;99.90;;;;;;4987837;28;20722;-84
2021/12/03 20:09:01;;;;;;;24.95;15.18;;;3.60;99.90;;;;;;4969960;28;20069;-85
2021/12/03 20:11:37;;;;;;;29.00;16.77;;;3.50;99.90;;;;;;4977324;28;20072;-84
2021/12/03 20:14:03;;;;;;;26.80;16.50;;;3.60;99.90;;;;;;4988548;28;20062;-84
2021/12/03 20:19:16;;;;;;;28.98;17.27;;;3.60;99.90;;;;;;5004209;28;20100;-83
2021/12/03 20:21:50;;;;;;;27.98;16.83;;;3.60;99.90;;;;;;5006130;28;20534;-84
2021/12/03 20:24:31;;;;;;;32.33;17.73;;;4.40;99.90;;;;;;4974655;28;20136;-83
2021/12/03 20:27:00;;;;;;;25.02;14.48;;;3.60;99.90;;;;;;4977211;28;20045;-83
2021/12/03 20:39:57;;;;;;;26.50;15.60;;;3.60;99.90;;;;;;4993115;28;20057;-83
2021/12/03 20:42:28;;;;;;;28.38;16.95;;;3.60;99.90;;;;;;4976138;28;20045;-84
2021/12/03 21:09:26;;;;;;;29.50;16.10;;;3.60;99.90;;;;;;4991356;28;20077;-83
2021/12/03 21:11:57;;;;;;;32.17;16.75;;;3.60;99.90;;;;;;5009565;28;20044;-83
2021/12/03 21:14:28;;;;;;;27.52;16.02;;;3.60;99.90;;;;;;4990524;28;20049;-83